Terminal Aerodrome Forecast
Issued by NWS

Home | Current Version | Previous Version | Text Only | Print | Product List | Glossary On
Versions: 1 2 3 4 5 6 7 8 9 10 11 12 13 14 15 16 17 18 19 20 21 22 23 24 25 26
000
FTUS44 KOUN 021739
TAFHBR
TAF
KHBR 021739Z 0218/0318 22013KT P6SM FEW060 SCT250
      TEMPO 0218/0221 6SM -SHRA BKN050 OVC250
     FM030100 17010KT P6SM SCT060 BKN200 PROB30 0305/0311 5SM -TSRA
      BKN050CB OVC200
     FM031100 01007KT P6SM SCT050=

USA.gov is the U.S. government's official web portal to all federal, state and local government web resources and services.